Time;durP1;ratioP1;P1;durP2;ratioP2;P2;SDS_P1;SDS_P2;PMS_P1;PMS_P2;Temp;Humidity;BMP_temperature;BMP_pressure;BME280_temperature;BME280_humidity;BME280_pressure;Samples;Min_cycle;Max_cycle;Signal;HPM_P1;HPM_P2
2023/03/30 04:22:40;;;;;;;5.82;2.47;;;;;;;12.93;100.00;99616.06;5089584;28;20390;-63
2023/03/30 04:25:27;;;;;;;9.35;1.50;;;;;;;12.97;100.00;99622.63;5089267;28;20050;-63
2023/03/30 04:28:13;;;;;;;;;;;;;;;12.93;100.00;99624.09;5085480;28;20440;-61
2023/03/30 04:30:39;;;;;;;5.05;1.75;;;;;;;12.85;100.00;99618.13;5089592;28;19916;-61
2023/03/30 04:33:51;;;;;;;8.27;2.05;;;;;;;12.95;100.00;99621.19;5088097;28;20029;-61
2023/03/30 04:36:43;;;;;;;4.80;2.10;;;;;;;12.90;100.00;99615.63;5060013;28;20114;-62
2023/03/30 04:39:28;;;;;;;4.72;1.67;;;;;;;12.92;100.00;99614.44;5087901;28;20028;-63
2023/03/30 04:42:14;;;;;;;2.65;1.88;;;;;;;12.95;100.00;99610.50;5087788;28;20044;-62
2023/03/30 04:44:57;;;;;;;9.93;2.42;;;;;;;12.90;100.00;99611.09;5087890;28;20036;-62
2023/03/30 04:47:42;;;;;;;4.20;1.50;;;;;;;12.93;100.00;99602.69;5088831;28;20101;-64
2023/03/30 04:50:22;;;;;;;7.15;2.05;;;;;;;12.98;100.00;99596.75;5089135;28;20060;-63
2023/03/30 04:53:06;;;;;;;4.40;1.70;;;;;;;13.02;100.00;99576.59;5088907;28;20051;-62
2023/03/30 04:55:49;;;;;;;9.65;1.77;;;;;;;12.99;100.00;99571.66;5072858;28;20099;-62
2023/03/30 04:58:35;;;;;;;6.75;1.80;;;;;;;13.08;100.00;99564.25;5088154;28;20036;-62
2023/03/30 05:01:19;;;;;;;5.35;1.83;;;;;;;12.97;100.00;99563.00;5088568;28;20052;-64
2023/03/30 05:04:06;;;;;;;5.60;2.10;;;;;;;13.01;100.00;99564.25;5073455;28;20131;-61
2023/03/30 05:06:50;;;;;;;7.25;2.28;;;;;;;12.97;100.00;99557.66;5088475;28;20055;-65
2023/03/30 05:09:34;;;;;;;5.43;2.10;;;;;;;12.77;100.00;99561.13;5088668;28;20458;-63
2023/03/30 05:12:19;;;;;;;5.65;2.55;;;;;;;12.74;100.00;99564.22;5088572;28;20059;-62
2023/03/30 05:15:11;;;;;;;5.57;1.90;;;;;;;12.73;100.00;99573.28;5086133;28;20120;-65
2023/03/30 05:18:05;;;;;;;8.95;2.17;;;;;;;12.70;100.00;99592.38;5088038;28;20051;-64
2023/03/30 05:20:49;;;;;;;5.78;2.13;;;;;;;12.71;100.00;99620.75;5088293;28;20132;-65
2023/03/30 05:23:41;;;;;;;5.53;2.30;;;;;;;12.72;100.00;99670.50;5086194;28;20067;-63
2023/03/30 05:26:45;;;;;;;5.22;2.22;;;;;;;12.74;100.00;99740.59;5086863;28;20592;-63
2023/03/30 05:29:25;;;;;;;7.25;2.38;;;;;;;12.80;100.00;99786.28;5086904;28;20040;-64
2023/03/30 05:32:10;;;;;;;6.30;2.88;;;;;;;12.82;100.00;99768.19;5084640;28;20052;-65
2023/03/30 05:35:01;;;;;;;13.27;2.42;;;;;;;12.84;100.00;99769.63;5071704;28;20678;-62
2023/03/30 05:37:39;;;;;;;10.30;2.92;;;;;;;12.85;100.00;99781.97;5073087;28;20032;-62
2023/03/30 05:40:22;;;;;;;8.48;3.08;;;;;;;12.87;100.00;99797.81;5073290;28;20037;-64
2023/03/30 05:43:07;;;;;;;11.63;2.63;;;;;;;12.90;100.00;99792.06;5059389;28;20032;-63
2023/03/30 05:45:47;;;;;;;7.93;2.33;;;;;;;12.88;100.00;99800.28;5073390;28;20378;-65
2023/03/30 05:48:30;;;;;;;5.72;2.53;;;;;;;12.91;100.00;99793.69;5072832;28;20043;-63
2023/03/30 05:51:07;;;;;;;7.13;2.63;;;;;;;12.88;100.00;99786.09;5073095;28;20032;-64
2023/03/30 05:53:55;;;;;;;12.68;3.10;;;;;;;12.91;100.00;99785.69;5074258;28;20784;-63
2023/03/30 05:56:36;;;;;;;6.22;2.88;;;;;;;12.85;100.00;99797.19;5073087;28;20105;-65
2023/03/30 05:59:18;;;;;;;9.75;2.55;;;;;;;12.81;100.00;99811.97;5072776;28;20456;-64
2023/03/30 06:01:59;;;;;;;10.50;3.03;;;;;;;12.73;100.00;99824.47;5074364;28;20058;-62
2023/03/30 06:04:26;;;;;;;9.40;2.87;;;;;;;12.69;100.00;99831.22;5072864;28;20047;-62
2023/03/30 06:06:52;;;;;;;6.65;3.00;;;;;;;12.61;100.00;99833.25;5072708;28;20537;-63
2023/03/30 06:09:18;;;;;;;10.23;3.33;;;;;;;12.63;100.00;99840.03;5056023;28;20032;-64
2023/03/30 06:11:44;;;;;;;15.65;3.38;;;;;;;12.63;100.00;99839.19;5072813;28;20514;-62
2023/03/30 06:14:21;;;;;;;9.15;3.40;;;;;;;12.62;100.00;99842.91;5072843;28;20037;-63
2023/03/30 06:17:17;;;;;;;12.52;3.45;;;;;;;12.64;100.00;99841.66;5072317;28;20036;-63
2023/03/30 06:19:43;;;;;;;9.73;3.25;;;;;;;12.58;100.00;99837.09;5072292;28;20035;-63
2023/03/30 06:22:09;;;;;;;14.35;3.42;;;;;;;12.60;100.00;99855.63;5072452;28;20429;-63
2023/03/30 06:24:54;;;;;;;10.48;3.78;;;;;;;12.58;100.00;99861.16;5066302;28;20040;-62
2023/03/30 06:27:20;;;;;;;7.70;3.10;;;;;;;12.50;100.00;99867.47;5072109;28;20032;-60
2023/03/30 06:29:45;;;;;;;9.02;3.22;;;;;;;12.48;100.00;99863.38;5072435;28;20064;-63
2023/03/30 06:32:11;;;;;;;8.40;3.65;;;;;;;12.47;100.00;99859.03;5072345;28;20025;-62
2023/03/30 06:34:52;;;;;;;9.07;3.17;;;;;;;12.45;100.00;99877.94;5073578;28;20143;-62
2023/03/30 06:37:19;;;;;;;9.52;3.83;;;;;;;12.42;100.00;99881.00;5071876;28;20413;-62
2023/03/30 06:39:45;;;;;;;8.73;3.58;;;;;;;12.39;100.00;99897.41;5072278;28;20064;-62
2023/03/30 06:42:11;;;;;;;9.07;2.80;;;;;;;12.39;100.00;99869.88;5073440;28;20478;-62
2023/03/30 06:45:13;;;;;;;9.48;3.42;;;;;;;12.35;100.00;99844.56;5030081;28;20135;-67
2023/03/30 06:47:40;;;;;;;17.55;5.00;;;;;;;12.30;100.00;99828.28;5059713;28;20123;-68
2023/03/30 06:50:06;;;;;;;17.67;5.80;;;;;;;12.26;100.00;99822.53;5072184;28;20071;-67
2023/03/30 06:52:51;;;;;;;15.00;4.70;;;;;;;12.28;100.00;99841.03;5073369;28;20404;-67
2023/03/30 06:55:17;;;;;;;7.40;3.40;;;;;;;12.22;100.00;99840.78;5071859;28;20033;-68
2023/03/30 06:57:44;;;;;;;10.23;4.10;;;;;;;12.19;100.00;99849.19;5071631;28;20033;-67
2023/03/30 07:00:14;;;;;;;17.73;4.07;;;;;;;12.18;100.00;99858.19;5071849;28;20097;-67
2023/03/30 07:02:40;;;;;;;11.13;3.92;;;;;;;12.19;100.00;99857.19;5073174;28;20040;-68
2023/03/30 07:05:23;;;;;;;17.55;5.10;;;;;;;12.20;100.00;99858.84;5071676;28;20059;-68
2023/03/30 07:08:09;;;;;;;13.13;3.80;;;;;;;12.19;100.00;99867.03;5071699;28;20046;-68
2023/03/30 07:10:37;;;;;;;9.98;5.05;;;;;;;12.18;100.00;99865.38;5071599;28;20036;-67
2023/03/30 07:13:06;;;;;;;;;;;;;;;12.20;100.00;99861.50;5071850;28;20101;-67
2023/03/30 07:15:32;;;;;;;10.13;4.17;;;;;;;12.16;100.00;99856.75;5071431;28;19912;-67
2023/03/30 07:17:58;;;;;;;9.70;3.85;;;;;;;12.18;100.00;99855.53;5072316;28;20645;-67
2023/03/30 07:20:26;;;;;;;12.40;4.10;;;;;;;12.19;100.00;99848.34;5071143;28;20048;-67
2023/03/30 07:23:07;;;;;;;11.38;3.35;;;;;;;12.16;100.00;99859.41;5071243;28;20283;-67
2023/03/30 07:25:32;;;;;;;10.80;3.70;;;;;;;12.15;100.00;99882.63;5071101;28;20123;-67
2023/03/30 07:28:06;;;;;;;7.45;3.40;;;;;;;12.14;100.00;99883.63;5070998;28;20035;-68
2023/03/30 07:30:34;;;;;;;14.13;4.75;;;;;;;12.13;100.00;99891.84;5071133;28;20031;-67
2023/03/30 07:33:03;;;;;;;9.05;3.55;;;;;;;12.12;100.00;99880.31;5071121;28;20545;-68
2023/03/30 07:35:29;;;;;;;9.48;3.50;;;;;;;12.17;100.00;99887.75;5070914;28;20120;-68
2023/03/30 07:37:56;;;;;;;13.82;4.82;;;;;;;12.21;100.00;99899.72;5070694;28;20516;-67
2023/03/30 07:40:22;;;;;;;13.40;4.05;;;;;;;12.18;100.00;99905.44;5070953;28;20040;-68
2023/03/30 07:42:49;;;;;;;13.98;3.80;;;;;;;12.18;100.00;99906.25;5070869;28;20395;-68
2023/03/30 07:45:15;;;;;;;6.43;3.78;;;;;;;12.17;100.00;99898.44;5070875;28;20106;-68
2023/03/30 07:47:41;;;;;;;6.80;3.58;;;;;;;12.18;100.00;99894.75;5070534;28;20506;-67
2023/03/30 07:50:07;;;;;;;13.27;3.65;;;;;;;12.12;100.00;99893.66;5070869;28;20501;-68
2023/03/30 07:52:33;;;;;;;7.57;4.05;;;;;;;12.13;100.00;99870.50;5070701;28;20037;-68
2023/03/30 07:55:01;;;;;;;9.50;3.47;;;;;;;12.09;100.00;99880.72;5070650;28;20040;-68
2023/03/30 07:57:33;;;;;;;8.68;4.05;;;;;;;12.02;100.00;99877.16;5071733;28;20037;-68
2023/03/30 07:59:59;;;;;;;11.50;3.47;;;;;;;12.01;100.00;99861.34;5070907;28;20040;-67
2023/03/30 08:02:43;;;;;;;9.68;3.33;;;;;;;11.98;100.00;99824.34;5072233;28;20178;-68
2023/03/30 08:05:14;;;;;;;10.02;3.65;;;;;;;11.95;100.00;99836.25;5070696;28;20035;-68
2023/03/30 08:07:52;;;;;;;6.97;3.08;;;;;;;11.96;100.00;99832.56;5070488;28;20047;-68
2023/03/30 08:10:25;;;;;;;10.18;3.17;;;;;;;11.94;100.00;99814.06;5070804;28;20536;-68
2023/03/30 08:12:51;;;;;;;11.85;3.35;;;;;;;11.98;100.00;99814.50;5070535;28;20127;-68
2023/03/30 08:15:16;;;;;;;15.38;3.83;;;;;;;11.91;100.00;99797.59;5071882;28;20024;-68
2023/03/30 08:17:42;;;;;;;9.15;3.00;;;;;;;12.04;100.00;99819.06;5071488;28;20094;-68
2023/03/30 08:20:10;;;;;;;10.48;3.45;;;;;;;12.09;100.00;99821.97;5071746;28;20070;-68
2023/03/30 08:22:35;;;;;;;10.18;2.92;;;;;;;12.14;100.00;99813.41;5071703;28;20102;-68
2023/03/30 08:25:01;;;;;;;6.85;3.03;;;;;;;12.20;100.00;99816.13;5071660;28;20037;-68
2023/03/30 08:27:27;;;;;;;7.05;3.13;;;;;;;12.30;100.00;99809.59;5071249;28;20032;-68
2023/03/30 08:29:53;;;;;;;5.63;3.45;;;;;;;12.36;100.00;99815.00;5070375;28;20541;-67
2023/03/30 08:32:19;;;;;;;4.85;3.22;;;;;;;12.49;100.00;99804.38;5071671;28;20051;-67
2023/03/30 08:34:44;;;;;;;7.53;2.65;;;;;;;12.66;100.00;99804.09;5071678;28;20123;-67
2023/03/30 08:37:10;;;;;;;6.45;3.10;;;;;;;12.79;100.00;99819.38;5071396;28;20044;-68
2023/03/30 08:39:37;;;;;;;5.65;3.17;;;;;;;12.99;100.00;99798.91;5071529;28;20032;-67
2023/03/30 08:42:34;;;;;;;8.25;2.17;;;;;;;13.27;100.00;99798.81;5071569;28;20041;-67
2023/03/30 08:45:04;;;;;;;;;;;;;;;13.64;100.00;99786.75;5072070;28;20470;-68
2023/03/30 08:47:35;;;;;;;8.15;2.75;;;;;;;13.92;100.00;99796.44;5071165;28;19912;-68
2023/03/30 08:50:21;;;;;;;4.57;2.92;;;;;;;14.23;100.00;99791.28;5071593;28;20055;-68
2023/03/30 08:52:47;;;;;;;8.35;2.60;;;;;;;14.57;100.00;99792.91;5071610;28;20036;-68
2023/03/30 08:55:37;;;;;;;8.23;2.60;;;;;;;14.73;100.00;99793.47;5071515;28;20029;-69
2023/03/30 08:58:39;;;;;;;8.10;3.00;;;;;;;14.95;100.00;99821.66;5071286;28;20029;-67
2023/03/30 09:01:30;;;;;;;6.50;2.55;;;;;;;15.22;100.00;99841.16;5071506;28;20040;-67
2023/03/30 09:04:26;;;;;;;4.07;2.30;;;;;;;15.17;100.00;99857.06;5071395;28;20448;-68
2023/03/30 09:06:57;;;;;;;8.43;2.70;;;;;;;15.03;100.00;99855.47;5071353;28;20036;-67
2023/03/30 09:09:31;;;;;;;9.50;2.47;;;;;;;14.95;100.00;99858.38;5075119;28;20136;-67
2023/03/30 09:12:12;;;;;;;3.28;1.85;;;;;;;14.86;100.00;99863.94;5075230;28;20106;-68
2023/03/30 09:14:37;;;;;;;6.55;2.13;;;;;;;14.88;100.00;99875.31;5075095;28;20036;-67
2023/03/30 09:17:31;;;;;;;8.20;2.58;;;;;;;14.68;100.00;99868.34;5074724;28;20040;-68
2023/03/30 09:20:00;;;;;;;6.85;2.05;;;;;;;14.61;100.00;99904.03;5074948;28;20504;-68
2023/03/30 09:22:38;;;;;;;3.83;2.15;;;;;;;14.45;100.00;99914.31;5074859;28;20098;-67
2023/03/30 09:25:49;;;;;;;9.07;2.88;;;;;;;14.30;100.00;99920.69;5074881;28;20044;-67
2023/03/30 09:28:25;;;;;;;10.07;3.10;;;;;;;14.19;100.00;99934.69;5032194;28;20041;-68
2023/03/30 09:30:55;;;;;;;6.28;2.80;;;;;;;14.12;100.00;99932.00;5071942;28;20051;-69
2023/03/30 09:33:42;;;;;;;5.78;3.13;;;;;;;13.87;100.00;99928.22;5074829;28;20044;-66
2023/03/30 09:36:15;;;;;;;9.70;3.08;;;;;;;13.72;100.00;99895.47;5074606;28;20041;-66
2023/03/30 09:38:41;;;;;;;6.10;3.17;;;;;;;13.67;100.00;99881.84;5074478;28;20033;-68
2023/03/30 09:41:28;;;;;;;14.65;4.00;;;;;;;13.76;100.00;99870.78;5074532;28;20025;-68
2023/03/30 09:43:55;;;;;;;;;;;;;;;13.76;100.00;99861.94;5075046;28;20036;-66
2023/03/30 09:46:20;;;;;;;7.72;3.10;;;;;;;13.64;100.00;99866.22;5074379;28;19993;-66
2023/03/30 09:48:48;;;;;;;8.35;3.30;;;;;;;13.58;100.00;99857.13;5073948;28;20090;-66
2023/03/30 09:51:18;;;;;;;6.72;2.97;;;;;;;13.50;100.00;99851.97;5074544;28;20029;-67
2023/03/30 09:53:46;;;;;;;6.95;3.10;;;;;;;13.50;100.00;99860.00;5074531;28;20037;-70
2023/03/30 09:56:20;;;;;;;7.80;2.70;;;;;;;13.44;100.00;99868.84;5074261;28;20095;-67
2023/03/30 09:58:46;;;;;;;7.90;3.05;;;;;;;13.48;100.00;99860.19;5074104;28;20068;-68
2023/03/30 10:01:15;;;;;;;8.18;3.25;;;;;;;13.47;100.00;99852.38;5074151;28;20485;-67
2023/03/30 10:03:42;;;;;;;8.35;2.97;;;;;;;13.64;100.00;99848.31;5074309;28;20036;-67
2023/03/30 10:06:14;;;;;;;8.05;3.13;;;;;;;13.95;100.00;99860.28;5074137;28;20162;-67
2023/03/30 10:08:54;;;;;;;5.43;3.30;;;;;;;14.06;100.00;99863.19;5073724;28;20090;-67
2023/03/30 10:11:34;;;;;;;7.65;3.33;;;;;;;14.09;100.00;99851.25;5074275;28;20081;-67
2023/03/30 10:13:59;;;;;;;6.43;2.63;;;;;;;14.14;100.00;99856.78;5074067;28;20036;-67
2023/03/30 10:16:28;;;;;;;5.70;3.15;;;;;;;14.15;100.00;99862.97;5073849;28;20044;-67
2023/03/30 10:18:59;;;;;;;7.50;2.50;;;;;;;14.07;100.00;99842.56;5073468;28;20048;-67
2023/03/30 10:21:29;;;;;;;5.38;2.65;;;;;;;14.17;100.00;99855.56;5073648;28;20032;-66
2023/03/30 10:24:02;;;;;;;5.15;2.45;;;;;;;14.15;100.00;99846.91;5073792;28;20036;-66
2023/03/30 10:26:29;;;;;;;4.65;2.72;;;;;;;14.24;100.00;99859.91;5073642;28;20485;-65
2023/03/30 10:28:59;;;;;;;7.13;2.92;;;;;;;14.35;100.00;99845.88;5073248;28;20489;-67
2023/03/30 10:31:26;;;;;;;5.13;2.97;;;;;;;14.42;100.00;99843.19;5072505;28;20051;-66
2023/03/30 10:33:56;;;;;;;5.53;2.78;;;;;;;14.46;100.00;99833.72;5073672;28;20037;-66
2023/03/30 10:36:27;;;;;;;6.60;2.38;;;;;;;14.71;100.00;99835.75;5073574;28;20093;-66
2023/03/30 10:38:53;;;;;;;9.32;3.38;;;;;;;15.04;100.00;99843.69;5073147;28;20044;-67
2023/03/30 10:41:22;;;;;;;8.80;2.75;;;;;;;15.05;99.61;99840.78;5073472;28;20665;-67
2023/03/30 10:43:49;;;;;;;12.30;3.38;;;;;;;15.18;98.79;99848.78;5073454;28;20119;-67
2023/03/30 10:46:21;;;;;;;5.80;2.37;;;;;;;15.22;98.81;99838.47;5073364;28;20122;-67
2023/03/30 10:49:06;;;;;;;5.93;2.72;;;;;;;15.41;96.67;99842.09;5073114;28;20340;-67
2023/03/30 10:51:47;;;;;;;6.22;2.58;;;;;;;15.60;96.44;99848.41;5056438;28;20078;-67
2023/03/30 10:54:39;;;;;;;4.35;2.60;;;;;;;15.68;94.00;99858.91;5073324;28;20036;-69
2023/03/30 10:57:20;;;;;;;9.50;2.58;;;;;;;15.71;93.66;99848.56;5072822;28;20028;-67
2023/03/30 11:00:21;;;;;;;7.40;2.60;;;;;;;15.64;93.69;99849.63;5073061;28;20044;-68
2023/03/30 11:03:02;;;;;;;6.05;2.53;;;;;;;15.59;95.05;99847.56;5073049;28;20400;-68
2023/03/30 11:05:37;;;;;;;8.35;3.20;;;;;;;15.57;92.63;99848.81;5072986;28;20459;-69
2023/03/30 11:08:06;;;;;;;5.03;2.65;;;;;;;15.41;92.73;99850.97;5072633;28;20028;-68
2023/03/30 11:10:36;;;;;;;4.18;2.25;;;;;;;15.44;94.51;99855.91;5072880;28;20042;-68
2023/03/30 11:13:06;;;;;;;5.90;2.85;;;;;;;15.41;94.51;99853.66;5073155;28;20398;-68
2023/03/30 11:15:39;;;;;;;6.30;3.20;;;;;;;15.52;93.48;99848.63;5072742;28;20477;-68
2023/03/30 11:18:12;;;;;;;9.77;2.85;;;;;;;15.85;91.14;99852.00;5072439;28;20033;-68
2023/03/30 11:20:56;;;;;;;8.13;3.08;;;;;;;16.98;90.21;99862.56;5072438;28;20028;-69
2023/03/30 11:23:35;;;;;;;4.65;2.70;;;;;;;17.17;85.51;99866.09;5072622;28;20043;-69
2023/03/30 11:26:07;;;;;;;8.13;2.80;;;;;;;17.35;80.17;99857.19;5072522;28;20040;-68
2023/03/30 11:28:46;;;;;;;6.80;2.97;;;;;;;18.05;76.77;99849.34;5072251;28;20474;-69
2023/03/30 11:32:06;;;;;;;6.72;3.00;;;;;;;18.74;76.27;99854.22;5072438;28;20440;-67
2023/03/30 11:34:42;;;;;;;9.05;3.25;;;;;;;18.29;73.56;99847.50;5010510;28;20150;-68
2023/03/30 11:37:23;;;;;;;10.30;2.77;;;;;;;18.41;73.43;99855.63;5063624;28;20063;-67
2023/03/30 11:39:55;;;;;;;5.97;3.10;;;;;;;18.08;73.28;99865.06;5072519;28;20617;-67
2023/03/30 11:42:30;;;;;;;6.28;2.65;;;;;;;17.80;76.80;99856.78;5072325;28;20040;-67
2023/03/30 11:44:56;;;;;;;9.25;3.03;;;;;;;17.51;75.60;99859.22;5072382;28;20568;-67
2023/03/30 11:47:31;;;;;;;6.30;2.55;;;;;;;17.50;75.60;99868.34;5070606;28;20497;-67
2023/03/30 11:50:25;;;;;;;8.00;2.92;;;;;;;17.43;75.15;99864.94;5072205;28;20481;-67
2023/03/30 11:53:07;;;;;;;3.67;2.47;;;;;;;18.13;75.89;99859.00;5072106;28;20047;-68
2023/03/30 11:55:58;;;;;;;13.32;3.08;;;;;;;18.62;70.42;99849.63;5072088;28;20032;-67
2023/03/30 11:58:34;;;;;;;5.57;3.17;;;;;;;19.16;69.21;99866.47;5071777;28;20039;-67
2023/03/30 12:00:59;;;;;;;6.80;2.72;;;;;;;18.83;67.89;99852.81;5071986;28;20039;-66
2023/03/30 12:03:41;;;;;;;7.70;2.70;;;;;;;18.74;68.85;99841.56;5063229;28;20409;-67
2023/03/30 12:06:25;;;;;;;5.40;2.33;;;;;;;18.83;69.23;99850.09;5066899;28;20056;-67
2023/03/30 12:09:10;;;;;;;5.93;2.35;;;;;;;19.51;69.56;99844.75;5071667;28;20038;-68
2023/03/30 12:11:46;;;;;;;6.63;2.88;;;;;;;19.40;68.19;99829.41;5071952;28;20040;-67
2023/03/30 12:14:36;;;;;;;9.40;3.13;;;;;;;18.77;68.25;99832.97;5071975;28;20047;-67
2023/03/30 12:17:17;;;;;;;7.55;3.38;;;;;;;18.03;71.47;99837.97;5071435;28;20120;-66
2023/03/30 12:19:57;;;;;;;6.95;2.35;;;;;;;17.70;72.15;99833.06;5071999;28;20497;-67
2023/03/30 12:22:33;;;;;;;8.90;2.90;;;;;;;17.55;74.98;99828.09;5071687;28;20488;-68
2023/03/30 12:25:15;;;;;;;5.25;2.40;;;;;;;17.32;74.96;99828.81;5071868;28;20068;-67
2023/03/30 12:27:58;;;;;;;5.05;2.97;;;;;;;17.46;76.94;99817.88;5071394;28;20037;-67
2023/03/30 12:30:30;;;;;;;8.50;2.80;;;;;;;17.20;75.14;99806.41;5071805;28;20048;-68
2023/03/30 12:33:11;;;;;;;8.45;2.83;;;;;;;17.04;75.59;99799.78;5071734;28;20405;-67
2023/03/30 12:35:48;;;;;;;3.88;2.08;;;;;;;17.03;77.69;99814.31;5071707;28;20060;-68
2023/03/30 12:38:20;;;;;;;;;;;;;;;16.91;78.64;99826.84;5071870;28;20111;-69
2023/03/30 12:40:51;;;;;;;5.68;2.65;;;;;;;16.26;82.11;99821.91;5071741;28;19931;-69
2023/03/30 12:43:22;;;;;;;8.73;3.13;;;;;;;16.14;86.32;99826.34;5059191;28;20040;-68
2023/03/30 12:46:01;;;;;;;8.40;3.03;;;;;;;15.87;94.44;99835.66;5055629;28;20033;-66
2023/03/30 12:48:43;;;;;;;7.50;2.63;;;;;;;15.37;99.39;99817.53;5055299;28;20116;-67
2023/03/30 12:51:30;;;;;;;6.38;3.05;;;;;;;14.90;100.00;99818.78;5055735;28;20045;-67
2023/03/30 12:54:07;;;;;;;;;;;;;;;14.48;100.00;99790.66;5055968;28;20119;-68
2023/03/30 12:56:41;;;;;;;4.20;2.97;;;;;;;13.71;100.00;99792.94;5055530;28;19919;-69
2023/03/30 12:59:16;;;;;;;7.40;2.20;;;;;;;13.45;100.00;99793.72;5055203;28;20033;-68
2023/03/30 13:02:18;;;;;;;6.20;2.15;;;;;;;13.17;100.00;99775.09;5055412;28;20124;-67
2023/03/30 13:04:47;;;;;;;5.22;2.30;;;;;;;13.15;100.00;99770.97;5054212;28;20037;-67
2023/03/30 13:07:22;;;;;;;4.20;2.30;;;;;;;13.20;100.00;99768.53;5054880;28;20055;-68
2023/03/30 13:10:19;;;;;;;3.65;2.10;;;;;;;13.19;100.00;99777.56;5055403;28;20036;-67
2023/03/30 13:12:48;;;;;;;3.85;2.47;;;;;;;13.23;100.00;99785.00;5047546;28;20107;-67
2023/03/30 13:15:33;;;;;;;8.80;2.35;;;;;;;13.42;100.00;99790.59;5055079;28;20064;-67
2023/03/30 13:18:21;;;;;;;5.75;2.58;;;;;;;14.52;100.00;99792.69;5054684;28;20042;-67
2023/03/30 13:20:47;;;;;;;4.75;1.90;;;;;;;15.58;97.14;99786.03;5053871;28;20091;-66
2023/03/30 13:23:13;;;;;;;4.75;2.35;;;;;;;15.96;98.13;99778.75;5054925;28;20041;-66
2023/03/30 13:25:44;;;;;;;2.75;1.65;;;;;;;16.53;90.84;99792.91;5054819;28;20461;-66
2023/03/30 13:28:47;;;;;;;6.30;2.20;;;;;;;17.17;88.77;99790.72;5054512;28;20075;-66
2023/03/30 13:31:45;;;;;;;9.32;2.20;;;;;;;17.82;78.48;99781.97;5054953;28;20566;-67
2023/03/30 13:34:22;;;;;;;4.47;1.88;;;;;;;17.49;81.06;99794.03;5046630;28;20052;-66
2023/03/30 13:37:02;;;;;;;7.77;2.07;;;;;;;17.12;80.75;99801.34;5054644;28;20071;-66
2023/03/30 13:39:40;;;;;;;4.65;1.90;;;;;;;16.33;85.25;99797.66;5054768;28;20037;-67
2023/03/30 13:42:34;;;;;;;5.60;1.60;;;;;;;15.98;84.43;99791.97;5054659;28;20029;-66
2023/03/30 13:45:23;;;;;;;6.75;2.05;;;;;;;15.88;83.03;99794.31;5054679;28;20076;-66
2023/03/30 13:48:02;;;;;;;3.03;1.92;;;;;;;15.53;83.35;99789.38;5054223;28;20087;-66
2023/03/30 13:50:30;;;;;;;4.78;1.95;;;;;;;15.38;84.47;99781.59;5054588;28;20040;-65
2023/03/30 13:52:59;;;;;;;2.67;1.33;;;;;;;15.28;82.87;99792.00;5054072;28;20047;-66
2023/03/30 13:55:30;;;;;;;2.97;1.17;;;;;;;15.05;81.13;99794.38;5054228;28;20097;-67
2023/03/30 13:58:13;;;;;;;2.97;1.30;;;;;;;14.96;83.41;99793.81;5052803;28;20041;-67
2023/03/30 14:00:47;;;;;;;5.97;1.33;;;;;;;14.83;84.85;99792.00;5054197;28;20072;-69
2023/03/30 14:03:31;;;;;;;4.57;1.67;;;;;;;14.99;85.74;99784.50;5054286;28;20386;-66
2023/03/30 14:06:07;;;;;;;2.50;1.10;;;;;;;15.31;81.99;99791.56;5054086;28;20044;-66
2023/03/30 14:08:35;;;;;;;1.60;1.08;;;;;;;15.75;79.18;99803.31;5053904;28;20118;-67
2023/03/30 14:11:22;;;;;;;2.03;1.08;;;;;;;15.88;74.99;99800.50;5054072;28;20037;-67
2023/03/30 14:13:53;;;;;;;1.45;0.90;;;;;;;15.83;72.34;99792.28;5053908;28;20048;-66
2023/03/30 14:16:23;;;;;;;3.13;0.80;;;;;;;15.80;72.49;99789.22;5053869;28;20064;-66
2023/03/30 14:18:49;;;;;;;1.23;0.68;;;;;;;15.92;72.40;99799.03;5053590;28;20048;-66
2023/03/30 14:21:20;;;;;;;2.70;0.68;;;;;;;15.89;71.59;99809.38;5053768;28;20044;-66
2023/03/30 14:23:53;;;;;;;3.90;1.17;;;;;;;15.97;74.33;99811.78;5053697;28;20048;-65
2023/03/30 14:26:25;;;;;;;1.95;1.00;;;;;;;15.76;76.26;99817.53;5053671;28;20037;-66
2023/03/30 14:29:06;;;;;;;2.38;1.20;;;;;;;15.74;76.90;99802.47;5053401;28;20470;-66
2023/03/30 14:31:40;;;;;;;1.58;0.70;;;;;;;15.69;75.03;99817.59;5053727;28;20043;-66
2023/03/30 14:34:32;;;;;;;4.18;1.00;;;;;;;15.81;76.13;99790.88;5053572;28;20171;-66
2023/03/30 14:37:06;;;;;;;3.58;1.17;;;;;;;15.80;77.52;99795.41;5053300;28;20037;-66
2023/03/30 14:39:46;;;;;;;3.13;1.00;;;;;;;15.84;75.48;99798.47;5053468;28;20041;-67
2023/03/30 14:42:17;;;;;;;2.67;1.10;;;;;;;15.90;77.24;99789.53;5053635;28;20040;-67
2023/03/30 14:44:45;;;;;;;2.30;0.90;;;;;;;16.01;74.75;99795.03;5053373;28;20056;-67
2023/03/30 14:47:12;;;;;;;2.10;1.40;;;;;;;16.11;75.04;99797.25;5053092;28;20030;-67
2023/03/30 14:49:42;;;;;;;1.88;0.90;;;;;;;16.18;69.32;99797.19;5053666;28;20444;-67
2023/03/30 14:52:13;;;;;;;3.03;1.02;;;;;;;16.22;70.55;99793.00;5052043;28;20498;-68
2023/03/30 14:54:39;;;;;;;3.15;0.90;;;;;;;16.11;67.83;99791.88;5053277;28;20037;-67
2023/03/30 14:57:06;;;;;;;2.05;0.90;;;;;;;16.16;69.65;99807.31;5052900;28;20371;-67
2023/03/30 14:59:37;;;;;;;2.05;1.10;;;;;;;16.22;67.96;99803.75;5053150;28;20024;-67
2023/03/30 15:02:02;;;;;;;2.92;1.02;;;;;;;16.20;68.44;99805.84;5053082;28;20051;-67
2023/03/30 15:04:34;;;;;;;1.40;0.95;;;;;;;16.29;64.10;99808.00;5052817;28;20033;-67
2023/03/30 15:06:59;;;;;;;2.67;0.65;;;;;;;16.43;62.46;99806.03;5052238;28;20037;-67
2023/03/30 15:09:25;;;;;;;1.83;0.88;;;;;;;16.58;63.05;99807.53;5052794;28;20055;-67
2023/03/30 15:12:00;;;;;;;0.55;0.50;;;;;;;16.59;61.29;99799.25;5052939;28;20044;-67
2023/03/30 15:14:32;;;;;;;2.38;0.68;;;;;;;16.63;62.59;99800.47;5052807;28;20512;-67
2023/03/30 15:16:58;;;;;;;4.28;1.10;;;;;;;16.71;63.25;99800.19;5052552;28;20064;-67
2023/03/30 15:19:31;;;;;;;2.72;0.73;;;;;;;16.71;62.36;99797.50;5052652;28;20494;-66
2023/03/30 15:22:01;;;;;;;1.77;0.82;;;;;;;16.65;63.22;99808.28;5052552;28;20037;-67
2023/03/30 15:24:31;;;;;;;3.38;0.80;;;;;;;16.50;64.26;99795.22;5052510;28;20509;-67
2023/03/30 15:26:59;;;;;;;3.08;1.00;;;;;;;16.47;63.70;99811.78;5052406;28;20108;-67
2023/03/30 15:29:25;;;;;;;1.15;0.75;;;;;;;16.37;62.39;99816.84;5052486;28;20068;-67
2023/03/30 15:32:06;;;;;;;2.80;0.90;;;;;;;16.24;64.18;99812.44;5052607;28;20083;-67
2023/03/30 15:34:31;;;;;;;2.15;0.85;;;;;;;16.24;65.08;99812.44;5052470;28;20128;-67
2023/03/30 15:36:57;;;;;;;1.13;0.90;;;;;;;16.19;64.64;99820.31;5052221;28;20119;-66
2023/03/30 15:39:26;;;;;;;2.17;0.90;;;;;;;16.09;66.47;99807.38;5052359;28;20037;-66
2023/03/30 15:41:55;;;;;;;1.45;0.60;;;;;;;16.07;64.88;99811.31;5052231;28;20044;-66
2023/03/30 15:44:21;;;;;;;3.03;1.25;;;;;;;15.94;64.49;99815.75;5052526;28;20390;-66
2023/03/30 15:46:54;;;;;;;1.40;0.60;;;;;;;15.91;64.73;99812.66;5052069;28;20159;-65
2023/03/30 15:49:24;;;;;;;3.45;0.90;;;;;;;15.87;67.61;99806.94;5051991;28;20132;-67
2023/03/30 15:51:51;;;;;;;5.15;1.20;;;;;;;15.70;67.99;99813.84;5052145;28;20044;-68
2023/03/30 15:54:37;;;;;;;1.70;0.93;;;;;;;15.63;68.55;99815.78;5052199;28;20076;-66
2023/03/30 15:57:09;;;;;;;1.77;0.93;;;;;;;15.51;68.78;99817.47;5051725;28;20118;-66
2023/03/30 15:59:50;;;;;;;3.78;0.90;;;;;;;15.32;70.33;99809.34;5052146;28;20296;-67
2023/03/30 16:02:22;;;;;;;2.05;1.10;;;;;;;15.26;70.89;99814.69;5051893;28;20033;-67
2023/03/30 16:04:48;;;;;;;2.25;0.93;;;;;;;15.09;70.59;99815.19;5052103;28;20041;-69
2023/03/30 16:07:13;;;;;;;2.33;0.80;;;;;;;15.05;69.06;99816.66;5051543;28;20504;-67
2023/03/30 16:09:39;;;;;;;0.95;0.80;;;;;;;15.06;69.96;99815.66;5052036;28;20040;-68
2023/03/30 16:12:04;;;;;;;1.33;0.90;;;;;;;15.07;69.13;99819.97;5051906;28;20041;-67
2023/03/30 16:14:30;;;;;;;1.05;0.65;;;;;;;15.12;69.04;99811.25;5051981;28;20064;-67
2023/03/30 16:16:56;;;;;;;0.55;0.40;;;;;;;15.13;67.60;99804.88;5051397;28;20051;-67
2023/03/30 16:19:21;;;;;;;3.88;0.85;;;;;;;15.10;68.46;99819.53;5051818;28;20067;-67
2023/03/30 16:21:46;;;;;;;1.98;0.90;;;;;;;15.09;68.27;99812.53;5051658;28;20051;-66
2023/03/30 16:24:12;;;;;;;0.60;0.60;;;;;;;15.12;68.50;99808.56;5051796;28;20036;-68
2023/03/30 16:26:37;;;;;;;2.33;0.77;;;;;;;15.10;70.10;99805.28;5051751;28;20090;-68
2023/03/30 16:29:03;;;;;;;0.65;0.65;;;;;;;15.07;70.08;99805.72;5051540;28;20225;-69